Archiv-/Tagesdaten

--Timestamp---	Temp	Chill	HIndex	Humid	Dewpt	 Wind 	HiWind	WindDir	Rain 	Barom	Solar	 ET  	 UV 
--------------	----	-----	------	-----	-----	------	------	-------	-----	-----	-----	-----	----
20090803 00:00	14.3	14.3	14.3	90	12.7	5	11	248	0.0	1014.0	0	0.000	0.0
20090803 00:05	14.2	14.2	14.2	90	12.6	3	10	248	0.0	1014.1	0	0.000	0.0
20090803 00:10	14.2	14.2	14.2	90	12.5	2	6	248	0.0	1014.1	0	0.000	0.0
20090803 00:15	14.2	14.2	14.2	90	12.5	3	8	248	0.0	1014.1	0	0.000	0.0
20090803 00:20	14.1	14.1	14.1	90	12.5	3	6	248	0.0	1014.0	0	0.000	0.0
20090803 00:25	14.1	14.1	14.1	90	12.4	3	6	248	0.0	1014.0	0	0.000	0.0
20090803 00:30	14.0	14.0	14.0	90	12.4	3	8	248	0.0	1014.0	0	0.000	0.0
20090803 00:35	13.9	13.9	13.9	90	12.3	3	10	248	0.0	1014.1	0	0.000	0.0
20090803 00:40	13.9	13.9	13.9	90	12.3	5	8	248	0.0	1014.0	0	0.000	0.0
20090803 00:45	13.8	13.8	13.8	90	12.2	3	8	248	0.0	1014.0	0	0.000	0.0
20090803 00:50	13.8	13.8	13.8	90	12.2	3	8	248	0.0	1013.9	0	0.000	0.0
20090803 00:55	13.8	13.8	13.8	90	12.2	2	6	248	0.0	1013.8	0	0.000	0.0
20090803 01:00	13.8	13.8	13.8	90	12.2	0	5	248	0.0	1013.8	0	0.000	0.0
20090803 01:05	13.8	13.8	13.8	90	12.2	3	6	270	0.0	1013.7	0	0.000	0.0
20090803 01:10	13.8	13.8	13.8	90	12.2	2	6	270	0.0	1013.7	0	0.000	0.0
20090803 01:15	13.8	13.8	13.8	90	12.2	0	3	270	0.0	1013.7	0	0.000	0.0
20090803 01:20	13.7	13.7	13.7	90	12.1	2	6	270	0.0	1013.7	0	0.000	0.0
20090803 01:25	13.7	13.7	13.7	91	12.3	3	8	270	0.0	1013.8	0	0.000	0.0
20090803 01:30	13.7	13.7	13.7	91	12.3	5	8	270	0.0	1013.8	0	0.000	0.0
20090803 01:35	13.8	13.8	13.8	91	12.3	3	8	248	0.0	1013.8	0	0.000	0.0
20090803 01:40	13.8	13.8	13.8	91	12.3	3	8	248	0.0	1013.8	0	0.000	0.0
20090803 01:45	13.8	13.8	13.8	91	12.4	3	6	248	0.0	1014.0	0	0.000	0.0
20090803 01:50	13.8	13.8	13.8	91	12.4	2	6	248	0.0	1014.0	0	0.000	0.0
20090803 01:55	13.9	13.9	13.9	91	12.4	2	5	248	0.0	1013.9	0	0.000	0.0
20090803 02:00	13.9	13.9	13.9	91	12.4	3	6	248	0.0	1014.0	0	0.000	0.0
20090803 02:05	13.9	13.9	13.9	91	12.5	5	8	248	0.0	1014.3	0	0.000	0.0
20090803 02:10	13.9	13.9	13.9	91	12.5	2	8	248	0.0	1014.2	0	0.000	0.0
20090803 02:15	13.9	13.9	13.9	91	12.5	0	5	248	0.0	1014.2	0	0.000	0.0
20090803 02:20	14.0	14.0	14.0	91	12.6	2	5	248	0.0	1014.2	0	0.000	0.0
20090803 02:25	14.0	14.0	14.0	91	12.6	5	8	248	0.0	1014.3	0	0.000	0.0
20090803 02:30	13.9	13.9	13.9	91	12.5	5	10	248	0.0	1014.2	0	0.000	0.0
20090803 02:35	13.9	13.9	13.9	91	12.5	5	8	202	0.0	1014.3	0	0.000	0.0
20090803 02:40	13.9	13.9	13.9	91	12.5	5	10	225	0.0	1014.2	0	0.000	0.0
20090803 02:45	14.0	14.0	14.0	91	12.6	3	10	248	0.0	1014.3	0	0.000	0.0
20090803 02:50	14.0	14.0	14.0	91	12.6	3	8	248	0.0	1014.2	0	0.000	0.0
20090803 02:55	14.1	14.1	14.1	91	12.6	3	8	248	0.0	1014.1	0	0.000	0.0
20090803 03:00	14.1	14.1	14.1	91	12.7	3	8	248	0.0	1014.0	0	0.000	0.0
20090803 03:05	14.2	14.2	14.2	91	12.7	3	6	248	0.0	1014.3	0	0.000	0.0
20090803 03:10	14.2	14.2	14.2	91	12.7	5	8	248	0.0	1014.2	0	0.000	0.0
20090803 03:15	14.2	14.2	14.2	91	12.7	3	6	248	0.0	1014.2	0	0.000	0.0
20090803 03:20	14.2	14.2	14.2	91	12.7	3	6	248	0.0	1014.2	0	0.000	0.0
20090803 03:25	14.2	14.2	14.2	91	12.7	2	5	248	0.0	1014.2	0	0.000	0.0
20090803 03:30	14.1	14.1	14.1	91	12.7	2	8	248	0.0	1014.4	0	0.000	0.0
20090803 03:35	14.1	14.1	14.1	91	12.6	5	8	248	0.0	1014.4	0	0.000	0.0
20090803 03:40	14.0	14.0	14.0	91	12.6	3	5	248	0.0	1014.5	0	0.000	0.0
20090803 03:45	13.9	13.9	13.9	91	12.5	3	6	248	0.0	1014.4	0	0.000	0.0
20090803 03:50	13.8	13.8	13.8	91	12.4	2	8	248	0.0	1014.3	0	0.000	0.0
20090803 03:55	13.8	13.8	13.8	91	12.4	3	8	248	0.0	1014.4	0	0.000	0.0
20090803 04:00	13.8	13.8	13.8	91	12.3	2	8	248	0.0	1014.3	0	0.000	0.0
20090803 04:05	13.8	13.8	13.8	91	12.3	0	5	248	0.0	1014.5	0	0.000	0.0
20090803 04:10	13.8	13.8	13.8	92	12.5	0	5	248	0.0	1014.5	0	0.000	0.0
20090803 04:15	13.8	13.8	13.8	92	12.5	2	5	248	0.0	1014.5	0	0.000	0.0
20090803 04:20	13.8	13.8	13.8	92	12.5	0	2	248	0.0	1014.3	0	0.000	0.0
20090803 04:25	13.7	13.7	13.7	92	12.4	0	0	-100000	0.0	1014.3	0	0.000	0.0
20090803 04:30	13.7	13.7	13.7	92	12.4	0	0	-100000	0.0	1014.3	0	0.000	0.0
20090803 04:35	13.8	13.8	13.8	92	12.5	0	0	-100000	0.0	1014.3	0	0.000	0.0
20090803 04:40	13.8	13.8	13.8	92	12.5	0	0	-100000	0.0	1014.2	0	0.000	0.0
20090803 04:45	13.8	13.8	13.8	92	12.5	0	0	-100000	0.0	1014.1	0	0.000	0.0
20090803 04:50	13.8	13.8	13.8	92	12.5	0	0	-100000	0.0	1014.2	0	0.000	0.0
20090803 04:55	13.8	13.8	13.8	92	12.5	2	6	248	0.0	1014.3	0	0.000	0.0
20090803 05:00	13.8	13.8	13.8	92	12.6	2	6	248	0.0	1014.2	0	0.000	0.0
20090803 05:05	13.9	13.9	13.9	92	12.6	0	2	248	0.0	1014.3	0	0.000	0.0
20090803 05:10	13.9	13.9	13.9	92	12.6	2	5	248	0.0	1014.3	0	0.000	0.0
20090803 05:15	13.9	13.9	13.9	92	12.7	3	6	248	0.0	1014.4	0	0.000	0.0
20090803 05:20	13.9	13.9	13.9	92	12.7	3	6	248	0.0	1014.5	0	0.000	0.0
20090803 05:25	14.0	14.0	14.0	92	12.7	0	5	248	0.0	1014.5	0	0.000	0.0
20090803 05:30	14.0	14.0	14.0	92	12.7	3	6	248	0.0	1014.6	0	0.000	0.0
20090803 05:35	14.0	14.0	14.0	92	12.7	3	6	248	0.0	1014.6	0	0.000	0.0
20090803 05:40	14.0	14.0	14.0	92	12.7	5	6	248	0.0	1014.7	0	0.000	0.0
20090803 05:45	14.1	14.1	14.1	91	12.6	2	5	248	0.0	1014.7	0	0.000	0.0
20090803 05:50	14.1	14.1	14.1	91	12.6	2	6	248	0.0	1014.7	0	0.000	0.0
20090803 05:55	14.1	14.1	14.1	91	12.6	3	6	248	0.0	1014.7	0	0.000	0.0
20090803 06:00	14.1	14.1	14.1	92	12.8	2	5	248	0.0	1014.7	5	0.000	0.0
20090803 06:05	14.2	14.2	14.2	92	12.9	2	6	248	0.0	1014.8	7	0.000	0.0
20090803 06:10	14.1	14.1	14.1	91	12.7	5	10	248	0.0	1014.7	8	0.000	0.0
20090803 06:15	14.1	14.1	14.1	91	12.7	3	6	248	0.0	1014.7	7	0.000	0.0
20090803 06:20	14.1	14.1	14.1	91	12.7	2	5	248	0.0	1014.7	9	0.000	0.0
20090803 06:25	14.2	14.2	14.2	91	12.7	0	5	248	0.0	1014.8	11	0.000	0.0
20090803 06:30	14.2	14.2	14.2	91	12.7	0	2	248	0.0	1014.8	16	0.000	0.0
20090803 06:35	14.2	14.2	14.2	91	12.8	2	6	248	0.0	1014.9	18	0.000	0.0
20090803 06:40	14.2	14.2	14.2	91	12.8	2	5	248	0.0	1014.8	20	0.000	0.0
20090803 06:45	14.3	14.3	14.3	91	12.8	0	2	248	0.0	1014.7	23	0.000	0.0
20090803 06:50	14.3	14.3	14.3	91	12.9	0	2	248	0.0	1014.7	32	0.000	0.0
20090803 06:55	14.3	14.3	14.3	91	12.9	0	2	248	0.0	1014.7	30	0.000	0.0
20090803 07:00	14.4	14.4	14.4	91	12.9	0	2	248	0.0	1014.8	25	0.000	0.0
20090803 07:05	14.4	14.4	14.4	91	13.0	0	0	-100000	0.0	1014.7	29	0.000	0.0
20090803 07:10	14.5	14.5	14.5	91	13.0	0	2	248	0.0	1014.6	38	0.000	0.0
20090803 07:15	14.6	14.6	14.6	91	13.1	0	0	-100000	0.0	1014.5	38	0.000	0.0
20090803 07:20	14.6	14.6	14.6	91	13.2	0	2	248	0.0	1014.6	30	0.000	0.0
20090803 07:25	14.7	14.7	14.7	91	13.2	0	2	292	0.0	1014.6	26	0.000	0.0
20090803 07:30	14.7	14.7	14.7	92	13.4	0	2	292	0.0	1014.4	27	0.000	0.0
20090803 07:35	14.7	14.7	14.7	91	13.3	2	6	292	0.0	1014.4	33	0.000	0.0
20090803 07:40	14.7	14.7	14.7	91	13.3	2	5	292	0.0	1014.4	41	0.000	0.0
20090803 07:45	14.8	14.8	14.8	91	13.3	2	5	292	0.0	1014.4	52	0.000	0.0
20090803 07:50	14.8	14.8	14.8	91	13.4	0	3	292	0.0	1014.5	76	0.000	0.3
20090803 07:55	14.9	14.9	14.9	91	13.4	2	5	292	0.0	1014.5	115	0.000	0.5
20090803 08:00	15.0	15.0	15.0	91	13.5	0	5	315	0.0	1014.3	118	0.025	0.5
20090803 08:05	15.0	15.0	15.0	91	13.5	0	5	315	0.0	1014.5	125	0.000	0.6
20090803 08:10	15.0	15.0	15.0	90	13.4	0	6	315	0.0	1014.5	124	0.000	0.6
20090803 08:15	15.1	15.1	15.1	90	13.4	2	6	315	0.0	1014.5	130	0.000	0.7
20090803 08:20	15.2	15.2	15.2	90	13.5	2	6	315	0.0	1014.5	141	0.000	0.8
20090803 08:25	15.2	15.2	15.2	89	13.4	2	8	315	0.0	1014.5	150	0.000	0.8
20090803 08:30	15.3	15.3	15.3	89	13.5	2	6	22	0.0	1014.5	181	0.000	0.9
20090803 08:35	15.4	15.4	15.4	88	13.5	0	5	338	0.0	1014.5	198	0.000	1.0
20090803 08:40	15.7	15.7	15.7	89	13.9	0	3	338	0.0	1014.5	201	0.000	1.1
20090803 08:45	15.8	15.8	15.8	88	13.8	0	3	338	0.0	1014.5	172	0.000	1.0
20090803 08:50	15.9	15.9	15.9	87	13.7	2	8	292	0.0	1014.5	188	0.000	1.2
20090803 08:55	15.9	15.9	15.9	88	14.0	0	5	0	0.0	1014.6	204	0.000	1.4
20090803 09:00	16.1	16.1	16.1	86	13.7	2	8	22	0.0	1014.7	155	0.076	1.3
20090803 09:05	16.1	16.1	16.1	86	13.7	2	8	338	0.0	1014.7	98	0.000	0.9
20090803 09:10	16.0	16.0	16.0	86	13.7	2	5	338	0.0	1014.7	105	0.000	1.0
20090803 09:15	15.9	15.9	15.9	86	13.6	2	6	315	0.0	1014.7	132	0.000	1.3
20090803 09:20	15.8	15.8	15.8	85	13.3	3	8	315	0.0	1014.7	208	0.000	1.7
20090803 09:25	15.9	15.9	15.9	85	13.4	2	5	315	0.0	1014.7	179	0.000	1.7
20090803 09:30	15.9	15.9	15.9	85	13.4	2	5	315	0.0	1014.7	201	0.000	1.8
20090803 09:35	16.1	16.1	16.1	86	13.7	2	6	315	0.0	1014.7	197	0.000	1.8
20090803 09:40	16.2	16.2	16.2	85	13.6	3	6	315	0.0	1014.6	173	0.000	1.7
20090803 09:45	16.2	16.2	16.2	85	13.7	2	8	315	0.0	1014.6	185	0.000	1.7
20090803 09:50	16.2	16.2	16.2	84	13.5	2	6	315	0.0	1014.6	223	0.000	1.7
20090803 09:55	16.2	16.2	16.2	84	13.5	3	6	315	0.0	1014.5	216	0.000	1.7
20090803 10:00	16.3	16.3	16.3	84	13.6	3	10	315	0.0	1014.4	211	0.102	1.6
20090803 10:05	16.3	16.3	16.3	85	13.8	3	10	315	0.0	1014.4	212	0.000	1.7
20090803 10:10	16.4	16.4	16.4	85	13.9	3	8	315	0.0	1014.3	181	0.000	1.5
20090803 10:15	16.4	16.4	16.4	84	13.7	2	10	315	0.0	1014.2	178	0.000	1.5
20090803 10:20	16.4	16.4	16.4	84	13.7	5	10	315	0.0	1014.3	177	0.000	1.5
20090803 10:25	16.4	16.4	16.4	83	13.5	5	10	315	0.0	1014.3	152	0.000	1.3
20090803 10:30	16.4	16.4	16.4	84	13.7	3	6	315	0.0	1014.3	149	0.000	1.2
20090803 10:35	16.4	16.4	16.4	84	13.7	3	6	315	0.0	1014.3	137	0.000	1.1
20090803 10:40	16.4	16.4	16.4	85	13.9	2	6	315	0.0	1014.3	125	0.000	1.0
20090803 10:45	16.4	16.4	16.4	85	13.9	3	8	315	0.2	1014.4	121	0.000	1.0
20090803 10:50	16.3	16.3	16.3	86	14.0	2	6	315	0.0	1014.5	126	0.000	1.1
20090803 10:55	16.3	16.3	16.3	87	14.1	2	6	315	0.0	1014.6	145	0.000	1.3
20090803 11:00	16.3	16.3	16.3	88	14.3	2	6	315	0.0	1014.7	167	0.102	1.6
20090803 11:05	16.2	16.2	16.2	87	14.1	2	5	315	0.2	1014.7	149	0.000	1.4
20090803 11:10	16.2	16.2	16.2	87	14.0	2	6	315	0.0	1014.7	126	0.000	1.2
20090803 11:15	16.1	16.1	16.1	87	13.9	2	8	315	0.0	1014.6	112	0.000	1.1
20090803 11:20	16.1	16.1	16.1	88	14.1	0	3	338	0.0	1014.7	98	0.000	1.0
20090803 11:25	16.1	16.1	16.1	89	14.3	0	6	338	0.2	1014.8	85	0.000	0.8
20090803 11:30	16.1	16.1	16.1	88	14.1	0	5	338	0.0	1014.7	63	0.000	0.6
20090803 11:35	15.9	15.9	15.9	89	14.1	2	5	338	0.0	1014.7	121	0.000	1.3
20090803 11:40	16.1	16.1	16.1	90	14.4	0	5	338	0.0	1014.8	283	0.000	2.8
20090803 11:45	16.3	16.3	16.3	90	14.6	3	10	0	0.0	1014.6	385	0.000	3.7
20090803 11:50	16.5	16.5	16.5	89	14.7	3	10	0	0.0	1014.5	397	0.000	3.9
20090803 11:55	16.6	16.6	16.6	87	14.4	3	10	0	0.0	1014.4	342	0.000	3.6
20090803 12:00	16.7	16.7	16.7	87	14.5	3	10	0	0.0	1014.4	303	0.102	3.3
20090803 12:05	16.8	16.8	16.8	86	14.4	2	10	0	0.0	1014.6	238	0.000	2.5
20090803 12:10	16.7	16.7	16.7	86	14.4	3	11	45	0.0	1014.7	183	0.000	1.9
20090803 12:15	16.6	16.6	16.6	85	14.0	3	10	292	0.0	1014.8	163	0.000	1.7
20090803 12:20	16.4	16.4	16.4	85	13.9	2	10	338	0.0	1014.7	181	0.000	1.9
20090803 12:25	16.3	16.3	16.3	86	14.0	2	6	0	0.0	1014.8	194	0.000	2.1
20090803 12:30	16.4	16.4	16.4	85	13.9	3	8	22	0.0	1014.9	189	0.000	2.1
20090803 12:35	16.5	16.5	16.5	86	14.1	0	5	22	0.0	1014.9	181	0.000	2.0
20090803 12:40	16.5	16.5	16.5	84	13.8	3	6	22	0.0	1015.0	166	0.000	1.9
20090803 12:45	16.6	16.6	16.6	86	14.2	2	5	22	0.0	1015.0	146	0.000	1.7
20090803 12:50	16.6	16.6	16.6	84	13.8	3	8	22	0.0	1015.0	158	0.000	1.8
20090803 12:55	16.5	16.5	16.5	84	13.8	6	10	22	0.0	1015.0	113	0.000	1.2
20090803 13:00	16.4	16.4	16.4	84	13.7	5	11	22	0.0	1015.1	104	0.102	1.1
20090803 13:05	16.4	16.4	16.4	84	13.7	5	10	22	0.0	1015.0	112	0.000	1.1
20090803 13:10	16.3	16.3	16.3	84	13.6	5	8	45	0.0	1015.0	138	0.000	1.4
20090803 13:15	16.4	16.4	16.4	85	13.9	5	10	68	0.0	1014.9	203	0.000	2.2
20090803 13:20	16.6	16.6	16.6	85	14.0	5	8	45	0.0	1015.0	253	0.000	2.7
20090803 13:25	16.7	16.7	16.7	84	13.9	3	6	22	0.0	1014.9	198	0.000	2.1
20090803 13:30	16.7	16.7	16.7	84	14.0	5	11	68	0.0	1014.9	146	0.000	1.5
20090803 13:35	16.6	16.6	16.6	84	13.9	6	11	45	0.0	1014.8	187	0.000	1.9
20090803 13:40	16.7	16.7	16.7	85	14.1	5	10	45	0.0	1014.8	261	0.000	2.6
20090803 13:45	16.7	16.7	16.7	84	14.0	6	10	22	0.0	1014.8	202	0.000	2.0
20090803 13:50	16.7	16.7	16.7	84	13.9	6	10	68	0.0	1014.8	168	0.000	1.7
20090803 13:55	16.6	16.6	16.6	84	13.9	5	8	90	0.0	1014.8	243	0.000	2.4
20090803 14:00	16.7	16.7	16.7	84	14.0	5	10	112	0.0	1014.9	272	0.000	2.7
20090803 14:05	16.8	16.8	16.8	84	14.1	5	8	112	0.0	1015.0	230	0.127	2.2
20090803 14:10	16.8	16.8	16.8	85	14.3	3	8	112	0.0	1014.9	186	0.000	1.8
20090803 14:15	16.8	16.8	16.8	84	14.1	3	11	90	0.0	1014.9	178	0.000	1.6
20090803 14:20	16.8	16.8	16.8	83	13.9	5	10	68	0.0	1014.8	181	0.000	1.7
20090803 14:25	16.7	16.7	16.7	84	14.0	3	6	90	0.0	1014.8	171	0.000	1.6
20090803 14:30	16.7	16.7	16.7	84	14.0	6	10	68	0.0	1014.8	217	0.000	2.0
20090803 14:35	16.7	16.7	16.7	84	14.0	5	16	68	0.0	1014.7	268	0.000	2.4
20090803 14:40	16.9	16.9	16.9	84	14.2	3	8	112	0.0	1014.7	301	0.000	2.7
20090803 14:45	17.0	17.0	17.0	84	14.3	2	5	112	0.0	1014.6	318	0.000	2.9
20090803 14:50	17.2	17.2	17.2	83	14.3	5	10	112	0.0	1014.5	303	0.000	2.7
20090803 14:55	17.2	17.2	17.2	82	14.1	5	8	45	0.0	1014.4	316	0.000	2.8
20090803 15:00	17.3	17.3	17.3	82	14.2	5	10	45	0.0	1014.4	333	0.152	3.0
20090803 15:05	17.4	17.4	17.4	81	14.1	5	8	45	0.0	1014.4	311	0.000	2.8
20090803 15:10	17.5	17.5	17.5	81	14.2	5	10	45	0.0	1014.3	305	0.000	2.7
20090803 15:15	17.4	17.4	17.4	81	14.1	5	10	22	0.0	1014.2	301	0.000	2.6
20090803 15:20	17.4	17.4	17.4	80	14.0	5	10	45	0.0	1014.2	278	0.000	2.4
20090803 15:25	17.4	17.4	17.4	80	14.0	6	11	45	0.0	1014.2	307	0.000	2.6
20090803 15:30	17.5	17.5	17.5	81	14.2	5	10	68	0.0	1014.0	333	0.000	2.8
20090803 15:35	17.6	17.6	17.6	79	13.9	6	16	45	0.0	1014.0	282	0.000	2.5
20090803 15:40	17.4	17.4	17.4	80	14.0	10	16	22	0.0	1014.1	237	0.000	2.1
20090803 15:45	17.4	17.4	17.4	81	14.1	6	13	22	0.0	1014.0	254	0.000	2.1
20090803 15:50	17.4	17.4	17.4	81	14.1	6	11	22	0.0	1013.9	299	0.000	2.4
20090803 15:55	17.5	17.5	17.5	80	14.0	6	11	45	0.0	1014.0	301	0.000	2.4
20090803 16:00	17.6	17.6	17.6	80	14.1	6	11	45	0.0	1014.0	302	0.178	2.5
20090803 16:05	17.7	17.7	17.7	79	14.0	6	11	22	0.0	1014.0	268	0.000	2.3
20090803 16:10	17.7	17.7	17.7	79	14.0	6	11	45	0.0	1014.0	250	0.000	2.1
20090803 16:15	17.6	17.6	17.6	79	13.9	6	10	22	0.0	1014.0	239	0.000	1.9
20090803 16:20	17.7	17.7	17.7	79	14.0	6	10	45	0.0	1014.0	238	0.000	1.8
20090803 16:25	17.7	17.7	17.7	79	14.0	5	11	45	0.0	1014.0	222	0.000	1.6
20090803 16:30	17.7	17.7	17.7	80	14.2	5	10	45	0.0	1014.0	201	0.000	1.5
20090803 16:35	17.7	17.7	17.7	80	14.2	3	6	45	0.0	1013.9	190	0.000	1.4
20090803 16:40	17.7	17.7	17.7	80	14.2	3	8	90	0.0	1013.9	190	0.000	1.4
20090803 16:45	17.7	17.7	17.7	80	14.2	3	6	45	0.0	1013.9	189	0.000	1.3
20090803 16:50	17.6	17.6	17.6	79	13.9	2	5	45	0.0	1013.8	174	0.000	1.2
20090803 16:55	17.6	17.6	17.6	80	14.1	0	3	45	0.0	1013.8	158	0.000	1.1
20090803 17:00	17.6	17.6	17.6	80	14.1	3	8	22	0.0	1013.9	141	0.127	1.0
20090803 17:05	17.6	17.6	17.6	80	14.1	2	6	22	0.0	1013.9	131	0.000	0.9
20090803 17:10	17.6	17.6	17.6	80	14.1	3	6	22	0.0	1013.8	124	0.000	0.8
20090803 17:15	17.6	17.6	17.6	79	13.9	2	5	22	0.0	1013.8	117	0.000	0.8
20090803 17:20	17.6	17.6	17.6	80	14.1	3	6	22	0.0	1013.8	109	0.000	0.7
20090803 17:25	17.5	17.5	17.5	80	14.0	0	3	22	0.0	1013.7	99	0.000	0.6
20090803 17:30	17.6	17.6	17.6	80	14.1	0	3	22	0.0	1013.7	85	0.000	0.5
20090803 17:35	17.6	17.6	17.6	80	14.1	0	2	22	0.0	1013.7	72	0.000	0.2
20090803 17:40	17.5	17.5	17.5	79	13.8	0	5	22	0.0	1013.7	68	0.000	0.0
20090803 17:45	17.4	17.4	17.4	80	14.0	0	3	22	0.0	1013.6	64	0.000	0.0
20090803 17:50	17.4	17.4	17.4	80	14.0	2	5	22	0.0	1013.6	60	0.000	0.0
20090803 17:55	17.4	17.4	17.4	80	13.9	3	5	22	0.0	1013.5	63	0.000	0.0
20090803 18:00	17.3	17.3	17.3	80	13.8	3	5	22	0.0	1013.6	71	0.051	0.0
20090803 18:05	17.3	17.3	17.3	81	14.0	3	5	22	0.0	1013.6	80	0.000	0.0
20090803 18:10	17.3	17.3	17.3	81	14.0	2	5	22	0.0	1013.6	82	0.000	0.0
20090803 18:15	17.3	17.3	17.3	81	14.0	2	3	22	0.0	1013.6	80	0.000	0.0
20090803 18:20	17.3	17.3	17.3	82	14.2	2	5	22	0.0	1013.6	77	0.000	0.0
20090803 18:25	17.3	17.3	17.3	82	14.2	2	6	22	0.0	1013.5	79	0.000	0.0
20090803 18:30	17.2	17.2	17.2	82	14.1	2	5	22	0.0	1013.5	79	0.000	0.0
20090803 18:35	17.2	17.2	17.2	82	14.1	3	6	22	0.0	1013.5	74	0.000	0.0
20090803 18:40	17.2	17.2	17.2	82	14.1	3	6	22	0.0	1013.4	66	0.000	0.0
20090803 18:45	17.2	17.2	17.2	82	14.1	5	8	22	0.0	1013.4	57	0.000	0.0
20090803 18:50	17.1	17.1	17.1	82	14.0	3	6	22	0.0	1013.4	52	0.000	0.0
20090803 18:55	17.1	17.1	17.1	83	14.2	3	5	22	0.0	1013.3	47	0.000	0.0
20090803 19:00	17.1	17.1	17.1	83	14.2	2	5	22	0.0	1013.5	46	0.051	0.0
20090803 19:05	17.1	17.1	17.1	82	14.0	2	5	22	0.0	1013.4	46	0.000	0.0
20090803 19:10	17.1	17.1	17.1	83	14.2	0	2	22	0.0	1013.6	41	0.000	0.0
20090803 19:15	17.1	17.1	17.1	82	14.0	0	2	22	0.0	1013.7	29	0.000	0.0
20090803 19:20	17.1	17.1	17.1	83	14.2	0	0	-100000	0.0	1013.8	23	0.000	0.0
20090803 19:25	17.1	17.1	17.1	83	14.2	0	2	22	0.0	1013.7	25	0.000	0.0
20090803 19:30	17.1	17.1	17.1	83	14.1	0	2	22	0.0	1013.7	23	0.000	0.0
20090803 19:35	17.1	17.1	17.1	83	14.1	0	2	22	0.0	1013.8	22	0.000	0.0
20090803 19:40	17.0	17.0	17.0	85	14.5	0	0	-100000	0.0	1013.8	22	0.000	0.0
20090803 19:45	17.0	17.0	17.0	83	14.1	0	0	-100000	0.0	1013.8	20	0.000	0.0
20090803 19:50	16.9	16.9	16.9	83	14.0	0	0	-100000	0.0	1013.9	19	0.000	0.0
20090803 19:55	16.9	16.9	16.9	83	14.0	0	0	-100000	0.0	1013.9	16	0.000	0.0
20090803 20:00	16.9	16.9	16.9	84	14.2	0	0	-100000	0.0	1014.0	13	0.025	0.0
20090803 20:05	16.9	16.9	16.9	84	14.2	0	0	-100000	0.0	1014.0	12	0.000	0.0
20090803 20:10	16.8	16.8	16.8	84	14.1	0	2	22	0.0	1014.0	12	0.000	0.0
20090803 20:15	16.8	16.8	16.8	85	14.3	0	2	22	0.0	1014.0	11	0.000	0.0
20090803 20:20	16.8	16.8	16.8	85	14.2	0	2	22	0.0	1014.0	9	0.000	0.0
20090803 20:25	16.8	16.8	16.8	85	14.2	0	0	-100000	0.0	1014.0	6	0.000	0.0
20090803 20:30	16.7	16.7	16.7	85	14.2	0	0	-100000	0.0	1014.0	3	0.000	0.0
20090803 20:35	16.7	16.7	16.7	84	13.9	0	0	-100000	0.0	1014.1	0	0.000	0.0
20090803 20:40	16.7	-100000.0	16.7	85	14.1	-100000	0	-100000	0.0	1014.1	0	0.000	0.0
20090803 20:45	16.6	16.6	16.6	85	14.0	0	0	-100000	0.0	1014.1	0	0.000	0.0
20090803 20:50	16.6	16.6	16.6	86	14.2	0	0	-100000	0.0	1014.0	0	0.000	0.0
20090803 20:55	16.6	16.6	16.6	86	14.2	0	0	-100000	0.0	1014.0	0	0.000	0.0
20090803 21:00	16.5	16.5	16.5	86	14.1	0	0	-100000	0.0	1014.1	0	0.000	0.0
20090803 21:05	16.4	16.4	16.4	87	14.3	0	0	-100000	0.0	1014.1	0	0.000	0.0
20090803 21:10	16.4	16.4	16.4	87	14.3	0	0	-100000	0.0	1014.2	0	0.000	0.0
20090803 21:15	16.4	16.4	16.4	87	14.3	0	2	22	0.0	1014.2	0	0.000	0.0
20090803 21:20	16.4	16.4	16.4	87	14.2	0	2	22	0.0	1014.3	0	0.000	0.0
20090803 21:25	16.4	16.4	16.4	88	14.4	0	2	22	0.0	1014.2	0	0.000	0.0
20090803 21:30	16.3	16.3	16.3	88	14.3	2	3	22	1.0	1014.2	0	0.000	0.0
20090803 21:35	16.3	16.3	16.3	88	14.3	0	3	22	1.4	1014.2	0	0.000	0.0
20090803 21:40	16.2	16.2	16.2	89	14.4	0	2	22	0.0	1014.2	0	0.000	0.0
20090803 21:45	16.1	16.1	16.1	89	14.3	0	2	22	0.0	1014.3	0	0.000	0.0
20090803 21:50	16.0	16.0	16.0	89	14.2	0	0	-100000	0.0	1014.2	0	0.000	0.0
20090803 21:55	15.9	15.9	15.9	89	14.1	0	0	-100000	0.0	1014.2	0	0.000	0.0
20090803 22:00	15.9	15.9	15.9	90	14.2	0	0	-100000	0.0	1014.2	0	0.000	0.0
20090803 22:05	15.9	15.9	15.9	90	14.2	0	0	-100000	0.0	1014.2	0	0.000	0.0
20090803 22:10	15.8	15.8	15.8	90	14.2	0	2	22	0.2	1014.2	0	0.000	0.0
20090803 22:15	15.8	15.8	15.8	90	14.2	0	2	22	0.0	1014.2	0	0.000	0.0
20090803 22:20	15.8	15.8	15.8	91	14.3	0	2	22	0.0	1014.3	0	0.000	0.0
20090803 22:25	15.8	15.8	15.8	91	14.3	0	2	22	0.0	1014.3	0	0.000	0.0
20090803 22:30	15.8	15.8	15.8	91	14.3	0	0	-100000	0.0	1014.3	0	0.000	0.0
20090803 22:35	15.8	15.8	15.8	92	14.5	2	6	22	0.0	1014.3	0	0.000	0.0
20090803 22:40	15.8	15.8	15.8	92	14.5	3	10	315	0.0	1014.3	0	0.000	0.0
20090803 22:45	15.9	15.9	15.9	92	14.6	3	5	315	0.0	1014.3	0	0.000	0.0
20090803 22:50	15.9	15.9	15.9	92	14.6	5	10	315	0.0	1014.3	0	0.000	0.0
20090803 22:55	15.8	15.8	15.8	92	14.5	5	8	315	0.0	1014.2	0	0.000	0.0
20090803 23:00	15.8	15.8	15.8	92	14.5	6	11	292	0.0	1014.2	0	0.000	0.0
20090803 23:05	15.8	15.8	15.8	92	14.5	6	16	292	0.2	1014.2	0	0.000	0.0
20090803 23:10	15.8	15.8	15.8	92	14.5	6	14	292	0.0	1014.2	0	0.000	0.0
20090803 23:15	15.8	15.8	15.8	92	14.5	5	11	292	0.0	1014.2	0	0.000	0.0
20090803 23:20	15.8	15.8	15.8	92	14.5	5	10	292	0.0	1014.2	0	0.000	0.0
20090803 23:25	15.7	15.7	15.7	93	14.6	5	14	292	0.0	1014.2	0	0.000	0.0
20090803 23:30	15.7	15.7	15.7	93	14.6	3	8	292	0.0	1014.2	0	0.000	0.0
20090803 23:35	15.7	15.7	15.7	93	14.6	3	8	292	0.0	1014.1	0	0.000	0.0
20090803 23:40	15.7	15.7	15.7	93	14.6	5	8	292	0.0	1014.2	0	0.000	0.0
20090803 23:45	15.7	15.7	15.7	93	14.6	3	8	292	0.0	1014.2	0	0.000	0.0
20090803 23:50	15.7	15.7	15.7	92	14.4	5	8	315	0.0	1014.3	0	0.000	0.0
20090803 23:55	15.7	15.7	15.7	93	14.5	2	6	315	0.0	1014.3	0	0.000	0.0



Please note the license to use and transfer of this data:
http://creativecommons.org/licenses/by-nc-sa/3.0/deed.en

Bitte beachten sie die Lizenz zur Verwertung und Weitergabe der Daten:
http://creativecommons.org/licenses/by-nc-sa/3.0/deed.de

zurück zur Übersicht der Archivdaten (Monats und Tagesdaten)

Cookies helfen bei der Bereitstellung von Inhalten. Durch die Nutzung dieser Seiten erklärst du dich damit einverstanden, dass Cookies auf deinem Rechner gespeichert werden. Weitere Information